Time;durP1;ratioP1;P1;durP2;ratioP2;P2;SDS_P1;SDS_P2;PMS_P1;PMS_P2;Temp;Humidity;BMP_temperature;BMP_pressure;BME280_temperature;BME280_humidity;BME280_pressure;Samples;Min_cycle;Max_cycle;Signal;HPM_P1;HPM_P2
2024/01/24 00:02:11;;;;;;;9.70;9.40;;;5.30;99.90;;;;;;6201318;23;20207;-86
2024/01/24 00:04:38;;;;;;;10.17;9.87;;;5.30;99.90;;;;;;6204077;23;20224;-85
2024/01/24 00:07:05;;;;;;;10.00;9.70;;;5.30;99.90;;;;;;6207744;23;20192;-86
2024/01/24 00:09:33;;;;;;;9.80;9.50;;;5.40;99.90;;;;;;6201493;23;20199;-86
2024/01/24 00:12:02;;;;;;;9.67;9.37;;;5.40;99.90;;;;;;6202050;23;20195;-87
2024/01/24 00:14:29;;;;;;;9.83;9.53;;;5.40;99.90;;;;;;6201888;23;20259;-87
2024/01/24 00:16:57;;;;;;;9.70;9.40;;;5.50;99.90;;;;;;6201486;23;20199;-86
2024/01/24 00:19:24;;;;;;;9.70;9.40;;;5.50;99.90;;;;;;6201014;23;20265;-86
2024/01/24 00:21:51;;;;;;;9.63;9.33;;;5.50;99.90;;;;;;6199661;23;20192;-86
2024/01/24 00:24:19;;;;;;;9.40;9.10;;;5.50;99.90;;;;;;6199828;23;20199;-86
2024/01/24 00:26:46;;;;;;;9.60;9.30;;;5.60;99.90;;;;;;6200601;23;20211;-86
2024/01/24 00:29:15;;;;;;;9.83;9.53;;;5.60;99.90;;;;;;6200342;23;20269;-86
2024/01/24 00:31:43;;;;;;;10.00;9.70;;;5.60;99.90;;;;;;6200548;23;20227;-86
2024/01/24 00:34:10;;;;;;;9.73;9.43;;;5.60;99.90;;;;;;6200479;23;20263;-86
2024/01/24 00:36:37;;;;;;;9.90;9.60;;;5.70;99.90;;;;;;6199947;23;20213;-86
2024/01/24 00:39:07;;;;;;;10.10;9.80;;;5.70;99.90;;;;;;6199843;23;20225;-87
2024/01/24 00:41:34;;;;;;;10.03;9.73;;;5.70;99.90;;;;;;6201756;23;20206;-85
2024/01/24 00:44:01;;;;;;;10.03;9.73;;;5.70;99.90;;;;;;6201957;23;20203;-85
2024/01/24 00:46:30;;;;;;;10.10;9.80;;;5.80;99.90;;;;;;6200832;23;20207;-85
2024/01/24 00:48:58;;;;;;;10.10;9.80;;;5.80;99.90;;;;;;6202935;23;20222;-84
2024/01/24 00:51:25;;;;;;;10.30;10.00;;;5.90;99.90;;;;;;6204156;23;20204;-85
2024/01/24 00:53:52;;;;;;;10.30;10.00;;;6.00;99.90;;;;;;6209891;23;20207;-85
2024/01/24 00:56:21;;;;;;;10.33;10.03;;;5.90;99.90;;;;;;6215132;23;20235;-86
2024/01/24 00:58:48;;;;;;;10.53;10.23;;;6.00;99.90;;;;;;6215261;23;20246;-86
2024/01/24 01:01:16;;;;;;;10.00;9.70;;;6.00;99.90;;;;;;6204243;23;20199;-86
2024/01/24 01:03:45;;;;;;;10.13;9.83;;;6.00;99.90;;;;;;6203913;23;20671;-86
2024/01/24 01:06:12;;;;;;;9.97;9.67;;;6.00;99.90;;;;;;6204241;23;20267;-86
2024/01/24 01:08:39;;;;;;;9.90;9.60;;;6.00;99.90;;;;;;6206793;23;20198;-86
2024/01/24 01:11:07;;;;;;;10.00;9.70;;;6.00;99.90;;;;;;6217348;22;20175;-86
2024/01/24 01:13:35;;;;;;;10.07;9.77;;;6.10;99.90;;;;;;6219182;22;20188;-85
2024/01/24 01:16:03;;;;;;;10.20;9.90;;;6.10;99.90;;;;;;6218225;23;20184;-86
2024/01/24 01:18:30;;;;;;;10.27;9.97;;;6.10;99.90;;;;;;6218174;23;20296;-86
2024/01/24 01:20:59;;;;;;;10.00;9.70;;;6.10;99.90;;;;;;6218403;23;20182;-85
2024/01/24 01:23:26;;;;;;;9.80;9.50;;;6.10;99.90;;;;;;6218589;22;20179;-85
2024/01/24 01:25:54;;;;;;;9.97;9.67;;;6.10;99.90;;;;;;6219433;22;20207;-85
2024/01/24 01:28:21;;;;;;;10.10;9.80;;;6.10;99.90;;;;;;6219656;22;20184;-85
2024/01/24 01:30:49;;;;;;;9.83;9.53;;;6.10;99.90;;;;;;6219736;22;20210;-85
2024/01/24 01:33:16;;;;;;;10.30;10.00;;;6.10;99.90;;;;;;6219452;22;20244;-85
2024/01/24 01:35:43;;;;;;;10.30;10.00;;;6.00;99.90;;;;;;6219396;22;20179;-86
2024/01/24 01:38:13;;;;;;;9.90;9.60;;;6.10;99.90;;;;;;6219075;22;20207;-86
2024/01/24 01:40:41;;;;;;;9.60;9.30;;;6.10;99.90;;;;;;6219109;22;20168;-85
2024/01/24 01:43:13;;;;;;;9.90;9.60;;;6.10;99.90;;;;;;6219620;22;20306;-85
2024/01/24 01:45:40;;;;;;;10.00;9.70;;;6.20;99.90;;;;;;6219169;22;20191;-85
2024/01/24 01:48:10;;;;;;;9.70;9.40;;;6.30;99.90;;;;;;6219095;22;20200;-86
2024/01/24 01:50:37;;;;;;;9.60;9.30;;;6.40;99.90;;;;;;6219154;22;20182;-85
2024/01/24 01:53:05;;;;;;;9.93;9.63;;;6.40;99.90;;;;;;6219003;22;20222;-85
2024/01/24 01:55:36;;;;;;;9.77;9.47;;;6.40;99.90;;;;;;6205792;23;20200;-87
2024/01/24 01:58:05;;;;;;;9.80;9.50;;;6.40;99.90;;;;;;6198514;23;20223;-87
2024/01/24 02:00:34;;;;;;;9.97;9.67;;;6.40;99.90;;;;;;6209475;22;20205;-86
2024/01/24 02:03:00;;;;;;;10.03;9.73;;;6.40;99.90;;;;;;6210320;22;20196;-86
2024/01/24 02:05:27;;;;;;;9.90;9.60;;;6.40;99.90;;;;;;6199702;23;20204;-87
2024/01/24 02:07:55;;;;;;;9.87;9.57;;;6.40;99.90;;;;;;6199054;23;20195;-85
2024/01/24 02:10:23;;;;;;;9.93;9.63;;;6.40;99.90;;;;;;6198342;23;20200;-86
2024/01/24 02:12:51;;;;;;;10.23;9.93;;;6.40;99.90;;;;;;6198442;23;20196;-86
2024/01/24 02:15:18;;;;;;;10.10;9.80;;;6.40;99.90;;;;;;6198897;23;20240;-86
2024/01/24 02:17:46;;;;;;;9.80;9.50;;;6.40;99.90;;;;;;6209111;23;20206;-86
2024/01/24 02:20:14;;;;;;;10.03;9.73;;;6.50;99.90;;;;;;6208186;23;20199;-86
2024/01/24 02:22:42;;;;;;;9.93;9.63;;;6.40;99.90;;;;;;6200522;23;21056;-86
2024/01/24 02:25:12;;;;;;;10.00;9.70;;;6.40;99.90;;;;;;6202147;23;20204;-87
2024/01/24 02:27:40;;;;;;;10.00;9.70;;;6.40;99.90;;;;;;6201122;23;20675;-86
2024/01/24 02:30:09;;;;;;;9.80;9.50;;;6.30;99.90;;;;;;6200789;23;20207;-85
2024/01/24 02:32:36;;;;;;;9.87;9.57;;;6.30;99.90;;;;;;6200660;23;20199;-85
2024/01/24 02:35:04;;;;;;;10.00;9.70;;;6.30;99.90;;;;;;6201998;23;20259;-88
2024/01/24 02:37:32;;;;;;;10.17;9.87;;;6.30;99.90;;;;;;6203989;23;20208;-85
2024/01/24 02:40:00;;;;;;;10.00;9.70;;;6.30;99.90;;;;;;6204695;23;20252;-87
2024/01/24 02:42:29;;;;;;;9.70;9.40;;;6.40;99.90;;;;;;6204302;23;20192;-86
2024/01/24 02:44:56;;;;;;;10.10;9.80;;;6.40;99.90;;;;;;6202322;23;20192;-85
2024/01/24 02:47:23;;;;;;;10.03;9.73;;;6.50;99.90;;;;;;6221914;22;20242;-82
2024/01/24 02:50:08;;;;;;;9.97;9.67;;;6.60;99.90;;;;;;6233696;23;20187;-82
2024/01/24 02:52:52;;;;;;;9.80;9.50;;;6.60;99.90;;;;;;6231336;23;20242;-82
2024/01/24 02:55:20;;;;;;;9.90;9.60;;;6.80;99.90;;;;;;6230819;22;20195;-81
2024/01/24 02:58:01;;;;;;;9.70;9.40;;;6.90;99.90;;;;;;6230641;23;20234;-82
2024/01/24 03:00:29;;;;;;;10.00;9.70;;;7.00;99.90;;;;;;6233435;23;20195;-81
2024/01/24 03:03:11;;;;;;;10.00;9.70;;;7.20;99.90;;;;;;6231453;23;20689;-81
2024/01/24 03:05:38;;;;;;;9.80;9.50;;;7.40;99.90;;;;;;6229936;22;20229;-81
2024/01/24 03:08:15;;;;;;;10.00;9.70;;;7.70;99.90;;;;;;6230250;23;20261;-82
2024/01/24 03:10:47;;;;;;;10.00;9.70;;;8.00;99.90;;;;;;6230013;23;20191;-83
2024/01/24 03:13:18;;;;;;;9.93;9.63;;;8.20;99.90;;;;;;6230072;23;20266;-83
2024/01/24 03:15:53;;;;;;;9.87;9.57;;;8.40;99.90;;;;;;6229846;22;20207;-83
2024/01/24 03:18:23;;;;;;;9.73;9.43;;;8.60;99.90;;;;;;6229829;23;20198;-83
2024/01/24 03:21:03;;;;;;;9.90;9.60;;;8.80;99.90;;;;;;6230648;23;20195;-82
2024/01/24 03:23:30;;;;;;;9.90;9.60;;;8.90;99.90;;;;;;6246820;23;20190;-81
2024/01/24 03:26:03;;;;;;;9.77;9.47;;;9.10;99.90;;;;;;6246151;22;20214;-82
2024/01/24 03:28:32;;;;;;;9.80;9.50;;;9.20;99.90;;;;;;6246353;23;20218;-82
2024/01/24 03:31:13;;;;;;;9.70;9.40;;;9.20;99.90;;;;;;6238821;23;20205;-82
2024/01/24 03:33:40;;;;;;;10.00;9.70;;;9.30;99.90;;;;;;6232559;23;20186;-82
2024/01/24 03:36:16;;;;;;;10.07;9.77;;;9.40;99.90;;;;;;6231944;22;20205;-82
2024/01/24 03:38:55;;;;;;;10.10;9.80;;;9.50;99.90;;;;;;6230808;23;20195;-83
2024/01/24 03:41:25;;;;;;;10.10;9.80;;;9.60;99.90;;;;;;6230574;23;20203;-82
2024/01/24 03:44:12;;;;;;;10.13;9.83;;;9.60;99.90;;;;;;6230568;23;20218;-82
2024/01/24 03:46:39;;;;;;;10.40;10.10;;;9.60;99.90;;;;;;6230299;22;20202;-82
2024/01/24 03:49:22;;;;;;;10.20;9.90;;;9.70;99.90;;;;;;6229849;23;20233;-81
2024/01/24 03:51:49;;;;;;;10.33;10.03;;;9.70;99.90;;;;;;6230264;23;20203;-82
2024/01/24 03:54:19;;;;;;;10.40;10.10;;;9.70;99.90;;;;;;6229574;23;20195;-82
2024/01/24 03:56:47;;;;;;;10.00;9.70;;;9.80;99.90;;;;;;6229496;22;20261;-82
2024/01/24 03:59:15;;;;;;;9.87;9.57;;;9.80;99.90;;;;;;6228593;23;20281;-82
2024/01/24 04:01:43;;;;;;;10.00;9.70;;;9.80;99.90;;;;;;6234794;23;20197;-83
2024/01/24 04:04:13;;;;;;;10.30;10.00;;;9.80;99.90;;;;;;6232674;23;20190;-82
2024/01/24 04:06:47;;;;;;;10.30;10.00;;;9.80;99.90;;;;;;6231491;22;20209;-82
2024/01/24 04:09:15;;;;;;;10.17;9.87;;;9.90;99.90;;;;;;6230353;23;20198;-82
2024/01/24 04:11:58;;;;;;;10.00;9.70;;;10.00;99.90;;;;;;6237581;23;20199;-83
2024/01/24 04:14:27;;;;;;;9.93;9.63;;;10.00;99.90;;;;;;6231553;23;20205;-83
2024/01/24 04:17:11;;;;;;;10.07;9.77;;;10.10;99.90;;;;;;6233342;22;20198;-82
2024/01/24 04:19:58;;;;;;;10.20;9.90;;;10.10;99.90;;;;;;6231662;23;20212;-83
2024/01/24 04:22:25;;;;;;;10.10;9.80;;;10.20;99.90;;;;;;6230909;23;20230;-81
2024/01/24 04:25:00;;;;;;;9.90;9.60;;;10.20;99.90;;;;;;6231964;23;20211;-82
2024/01/24 04:27:27;;;;;;;10.07;9.77;;;10.20;99.90;;;;;;6232224;22;20237;-82
2024/01/24 04:30:09;;;;;;;10.03;9.73;;;10.30;99.90;;;;;;6231295;23;20203;-82
2024/01/24 04:32:37;;;;;;;10.60;10.30;;;10.30;99.90;;;;;;6231094;23;20195;-82
2024/01/24 04:35:17;;;;;;;10.30;10.00;;;10.40;99.90;;;;;;6231582;23;20251;-82
2024/01/24 04:37:44;;;;;;;10.40;10.10;;;10.40;99.90;;;;;;6231619;23;20186;-82
2024/01/24 04:40:14;;;;;;;10.27;9.97;;;10.40;99.90;;;;;;6230501;23;20214;-82
2024/01/24 04:42:41;;;;;;;10.10;9.80;;;10.50;99.90;;;;;;6229558;23;20205;-82
2024/01/24 04:45:13;;;;;;;9.90;9.60;;;10.50;99.90;;;;;;6229162;23;20201;-82
2024/01/24 04:47:42;;;;;;;10.30;10.00;;;10.50;99.90;;;;;;6229651;22;20226;-82
2024/01/24 04:50:24;;;;;;;10.17;9.87;;;10.50;99.90;;;;;;6228553;23;20310;-82
2024/01/24 04:52:54;;;;;;;10.00;9.70;;;10.50;99.90;;;;;;6229005;23;20203;-82
2024/01/24 04:55:21;;;;;;;10.27;9.97;;;10.50;99.90;;;;;;6229079;22;20199;-81
2024/01/24 04:57:51;;;;;;;10.37;10.07;;;10.50;99.90;;;;;;6229375;23;20277;-81
2024/01/24 05:00:25;;;;;;;10.20;9.90;;;10.50;99.90;;;;;;6229532;23;20262;-83
2024/01/24 05:03:14;;;;;;;;;;;;;;;;;;;;;
2024/01/24 05:05:43;;;;;;;10.30;10.00;;;10.60;99.90;;;;;;6229383;22;20199;-82
2024/01/24 05:08:16;;;;;;;10.17;9.87;;;10.60;99.90;;;;;;6229368;23;20195;-82
2024/01/24 05:11:08;;;;;;;;;;;;;;;;;;;;;
2024/01/24 05:13:36;;;;;;;10.10;9.80;;;10.60;99.90;;;;;;6216441;23;20207;-81
2024/01/24 05:16:06;;;;;;;10.30;10.00;;;10.60;99.90;;;;;;6229248;23;20209;-81
2024/01/24 05:18:37;;;;;;;10.30;10.00;;;10.60;99.90;;;;;;6229018;23;20191;-82
2024/01/24 05:21:13;;;;;;;10.40;10.10;;;10.70;99.90;;;;;;6229358;23;20198;-84
2024/01/24 05:23:42;;;;;;;10.37;10.07;;;10.70;99.90;;;;;;6229643;23;20186;-82
2024/01/24 05:26:10;;;;;;;10.47;10.17;;;10.70;99.90;;;;;;6230057;22;20257;-83
2024/01/24 05:28:37;;;;;;;10.13;9.83;;;10.70;99.90;;;;;;6229282;23;20195;-82
2024/01/24 05:31:06;;;;;;;10.20;9.90;;;10.70;99.90;;;;;;6229755;23;20209;-83
2024/01/24 05:33:34;;;;;;;10.20;9.90;;;10.70;99.90;;;;;;6229497;23;20199;-83
2024/01/24 05:36:01;;;;;;;10.50;10.20;;;10.80;99.90;;;;;;6230417;22;20229;-83
2024/01/24 05:38:29;;;;;;;10.50;10.20;;;10.80;99.90;;;;;;6229162;23;20215;-82
2024/01/24 05:41:22;;;;;;;10.47;10.17;;;10.80;99.90;;;;;;6228859;23;20295;-82
2024/01/24 05:43:50;;;;;;;10.00;9.70;;;10.80;99.90;;;;;;6230153;23;20251;-82
2024/01/24 05:46:28;;;;;;;9.93;9.63;;;10.80;99.90;;;;;;6229397;22;20265;-82
2024/01/24 05:49:01;;;;;;;10.40;10.10;;;10.80;99.90;;;;;;6228693;23;20218;-82
2024/01/24 05:51:30;;;;;;;9.80;9.50;;;10.80;99.90;;;;;;6228984;23;20250;-83
2024/01/24 05:54:04;;;;;;;9.77;9.47;;;10.80;99.90;;;;;;6230676;23;20277;-82
2024/01/24 05:56:35;;;;;;;9.60;9.30;;;10.80;99.90;;;;;;6230608;22;20203;-81
2024/01/24 05:59:05;;;;;;;9.97;9.67;;;10.80;99.90;;;;;;6230417;23;20195;-82
2024/01/24 06:01:34;;;;;;;9.97;9.67;;;10.80;99.90;;;;;;6231237;23;20191;-82
2024/01/24 06:04:10;;;;;;;10.00;9.70;;;10.80;99.90;;;;;;6232116;23;20253;-83
2024/01/24 06:06:37;;;;;;;10.00;9.70;;;10.80;99.90;;;;;;6231246;22;20205;-83
2024/01/24 06:09:05;;;;;;;10.10;9.80;;;10.80;99.90;;;;;;6232255;23;20206;-83
2024/01/24 06:11:37;;;;;;;10.40;10.10;;;10.80;99.90;;;;;;6230902;23;20210;-82
2024/01/24 06:14:06;;;;;;;10.13;9.83;;;10.80;99.90;;;;;;6230205;23;20191;-83
2024/01/24 06:16:35;;;;;;;10.00;9.70;;;10.80;99.90;;;;;;6230024;22;20199;-83
2024/01/24 06:19:02;;;;;;;10.27;9.97;;;10.80;99.90;;;;;;6230841;23;20195;-83
2024/01/24 06:21:44;;;;;;;10.17;9.87;;;10.80;99.90;;;;;;6234647;23;20211;-82
2024/01/24 06:24:17;;;;;;;9.90;9.60;;;10.70;99.90;;;;;;6231973;23;20209;-83
2024/01/24 06:26:45;;;;;;;9.80;9.50;;;10.80;99.90;;;;;;6230870;22;20223;-82
2024/01/24 06:29:13;;;;;;;10.67;10.37;;;10.80;99.90;;;;;;6230591;23;20195;-83
2024/01/24 06:32:03;;;;;;;10.30;10.00;;;10.80;99.90;;;;;;6230801;23;20217;-82
2024/01/24 06:34:31;;;;;;;9.90;9.60;;;10.80;99.90;;;;;;6220755;23;20215;-83
2024/01/24 06:36:59;;;;;;;10.07;9.77;;;10.70;99.90;;;;;;6234599;22;20213;-82
2024/01/24 06:39:27;;;;;;;10.70;10.40;;;10.70;99.90;;;;;;6234520;23;20203;-82
2024/01/24 06:41:55;;;;;;;10.30;10.00;;;10.60;99.90;;;;;;6234175;23;20191;-83
2024/01/24 06:44:30;;;;;;;10.40;10.10;;;10.60;99.90;;;;;;6234241;23;20237;-82
2024/01/24 06:46:59;;;;;;;10.37;10.07;;;10.60;99.90;;;;;;6232286;22;20203;-82
2024/01/24 06:49:55;;;;;;;10.43;10.13;;;10.60;99.90;;;;;;6231466;23;20199;-83
2024/01/24 06:52:33;;;;;;;10.13;9.83;;;10.60;99.90;;;;;;6230926;23;20237;-82
2024/01/24 06:55:02;;;;;;;10.10;9.80;;;10.60;99.90;;;;;;6230591;23;20209;-82
2024/01/24 06:57:34;;;;;;;10.80;10.50;;;10.60;99.90;;;;;;6238537;22;20257;-83
2024/01/24 07:00:05;;;;;;;10.40;10.10;;;10.60;99.90;;;;;;6230730;23;20202;-83
2024/01/24 07:02:50;;;;;;;10.70;10.40;;;10.60;99.90;;;;;;6230015;23;20199;-82
2024/01/24 07:05:17;;;;;;;10.60;10.30;;;10.70;99.90;;;;;;6227734;22;20226;-82
2024/01/24 07:07:45;;;;;;;10.47;10.17;;;10.70;99.90;;;;;;6229500;23;20203;-82
2024/01/24 07:10:12;;;;;;;10.53;10.23;;;10.70;99.90;;;;;;6230128;23;20191;-83
2024/01/24 07:12:48;;;;;;;10.80;10.50;;;10.80;99.90;;;;;;6229338;23;20199;-83
2024/01/24 07:15:16;;;;;;;10.73;10.43;;;10.90;99.90;;;;;;6227373;23;20274;-83
2024/01/24 07:18:02;;;;;;;10.40;10.10;;;10.90;99.90;;;;;;6228194;23;20291;-83
2024/01/24 07:20:38;;;;;;;10.60;10.30;;;10.90;99.90;;;;;;6228954;23;20199;-83
2024/01/24 07:23:07;;;;;;;10.27;9.97;;;11.00;99.90;;;;;;6229590;23;20206;-82
2024/01/24 07:25:51;;;;;;;10.60;10.30;;;11.00;99.90;;;;;;6229072;22;20281;-83
2024/01/24 07:28:18;;;;;;;10.73;10.43;;;11.10;99.90;;;;;;6230080;23;20194;-83
2024/01/24 07:30:55;;;;;;;10.43;10.13;;;11.10;99.90;;;;;;6230706;23;20206;-83
2024/01/24 07:33:24;;;;;;;10.60;10.30;;;11.20;99.90;;;;;;6229813;23;20193;-82
2024/01/24 07:36:01;;;;;;;10.40;10.10;;;11.20;99.90;;;;;;6229511;22;20269;-83
2024/01/24 07:38:30;;;;;;;10.60;10.30;;;11.20;99.90;;;;;;6229385;23;20278;-83
2024/01/24 07:40:58;;;;;;;10.50;10.20;;;11.20;99.90;;;;;;6229413;23;20215;-83
2024/01/24 07:43:35;;;;;;;10.60;10.30;;;11.20;99.90;;;;;;6229815;23;20199;-83
2024/01/24 07:46:18;;;;;;;10.73;10.43;;;11.30;99.90;;;;;;6229971;22;20206;-83
2024/01/24 07:48:57;;;;;;;10.60;10.30;;;11.30;99.90;;;;;;6229856;22;20250;-83
2024/01/24 07:51:25;;;;;;;10.43;10.13;;;11.30;99.90;;;;;;6230962;23;20233;-83
2024/01/24 07:54:04;;;;;;;10.40;10.10;;;11.30;99.90;;;;;;6229425;23;20757;-83
2024/01/24 07:56:32;;;;;;;10.40;10.10;;;11.30;99.90;;;;;;6229920;22;20265;-83
2024/01/24 07:59:04;;;;;;;10.50;10.20;;;11.30;99.90;;;;;;6229346;23;20199;-83
2024/01/24 08:01:31;;;;;;;10.70;10.40;;;11.40;99.90;;;;;;6229488;23;20207;-83
2024/01/24 08:04:00;;;;;;;10.40;10.10;;;11.40;99.90;;;;;;6229803;23;20199;-83
2024/01/24 08:06:49;;;;;;;10.40;10.10;;;11.40;99.90;;;;;;6229729;22;20237;-83
2024/01/24 08:09:17;;;;;;;10.40;10.10;;;11.40;99.90;;;;;;6229200;23;20257;-83
2024/01/24 08:11:59;;;;;;;10.33;10.03;;;11.30;99.90;;;;;;6229711;23;20199;-83
2024/01/24 08:14:41;;;;;;;10.30;10.00;;;11.30;99.90;;;;;;6229831;23;20254;-83
2024/01/24 08:17:46;;;;;;;10.70;10.40;;;11.30;99.90;;;;;;6228763;22;20206;-83
2024/01/24 08:20:49;;;;;;;;;;;;;;;;;;;;;
2024/01/24 08:23:17;;;;;;;10.10;9.80;;;11.20;99.90;;;;;;6229570;23;20658;-83
2024/01/24 08:25:49;;;;;;;10.43;10.13;;;11.20;99.90;;;;;;6229738;22;20202;-83
2024/01/24 08:28:19;;;;;;;10.00;9.70;;;11.10;99.90;;;;;;6229489;23;20203;-83
2024/01/24 08:30:49;;;;;;;10.10;9.80;;;11.10;99.90;;;;;;6229814;23;20198;-84
2024/01/24 08:33:16;;;;;;;10.10;9.80;;;11.00;99.90;;;;;;6229316;23;20198;-83
2024/01/24 08:35:59;;;;;;;10.00;9.70;;;11.00;99.90;;;;;;6228358;22;20203;-83
2024/01/24 08:38:26;;;;;;;10.07;9.77;;;11.00;99.90;;;;;;6230428;23;20205;-83
2024/01/24 08:41:10;;;;;;;9.90;9.60;;;11.00;99.90;;;;;;6238918;23;20258;-83
2024/01/24 08:43:39;;;;;;;10.13;9.83;;;11.10;99.90;;;;;;6239973;23;20214;-83
2024/01/24 08:46:06;;;;;;;9.50;9.20;;;11.00;99.90;;;;;;6234364;22;20214;-84
2024/01/24 08:48:33;;;;;;;9.83;9.53;;;11.10;99.90;;;;;;6230596;23;20198;-87
2024/01/24 08:51:02;;;;;;;9.90;9.60;;;11.10;99.90;;;;;;6229283;23;20206;-85
2024/01/24 08:53:29;;;;;;;9.70;9.40;;;11.10;99.90;;;;;;6230435;23;20202;-86
2024/01/24 08:55:57;;;;;;;9.80;9.50;;;11.10;99.90;;;;;;6230607;22;20212;-86
2024/01/24 08:58:24;;;;;;;10.27;9.97;;;11.10;99.90;;;;;;6229951;23;20187;-86
2024/01/24 09:00:51;;;;;;;10.37;10.07;;;11.10;99.90;;;;;;6230338;23;20210;-86
2024/01/24 09:03:19;;;;;;;10.07;9.77;;;11.10;99.90;;;;;;6229697;23;20277;-86
2024/01/24 09:05:47;;;;;;;9.80;9.50;;;11.10;99.90;;;;;;6229579;22;20202;-85
2024/01/24 09:08:16;;;;;;;10.13;9.83;;;11.10;99.90;;;;;;6230203;23;20285;-86
2024/01/24 09:10:43;;;;;;;9.50;9.20;;;11.10;99.90;;;;;;6230316;23;20195;-86
2024/01/24 09:13:10;;;;;;;10.20;9.90;;;11.10;99.90;;;;;;6230543;23;20199;-85
2024/01/24 09:15:38;;;;;;;9.60;9.30;;;11.20;99.90;;;;;;6230109;22;20282;-85
2024/01/24 09:18:06;;;;;;;9.77;9.47;;;11.20;99.90;;;;;;6229622;23;20199;-86
2024/01/24 09:20:34;;;;;;;9.73;9.43;;;11.30;99.90;;;;;;6229479;23;20211;-86
2024/01/24 09:23:01;;;;;;;10.10;9.80;;;11.30;99.90;;;;;;6228760;23;20199;-87
2024/01/24 09:25:30;;;;;;;9.80;9.50;;;11.40;99.90;;;;;;6229719;23;20203;-87
2024/01/24 09:27:58;;;;;;;9.53;9.23;;;11.50;99.90;;;;;;6228924;22;20199;-87
2024/01/24 09:30:25;;;;;;;10.17;9.87;;;11.60;99.90;;;;;;6229464;23;20882;-87
2024/01/24 09:32:52;;;;;;;9.93;9.63;;;11.70;99.90;;;;;;6229649;23;20250;-87
2024/01/24 09:35:20;;;;;;;9.93;9.63;;;11.80;99.90;;;;;;6231878;23;20246;-87
2024/01/24 09:37:47;;;;;;;10.63;10.33;;;11.90;99.90;;;;;;6245928;22;20218;-87
2024/01/24 09:40:16;;;;;;;10.17;9.87;;;12.00;99.90;;;;;;6229512;23;20195;-87
2024/01/24 09:42:45;;;;;;;9.70;9.40;;;12.00;99.90;;;;;;6230755;23;20215;-87
2024/01/24 09:45:17;;;;;;;9.67;9.37;;;11.80;99.90;;;;;;6239588;22;20191;-86
2024/01/24 09:47:46;;;;;;;9.37;9.07;;;11.70;99.90;;;;;;6247112;22;20214;-86
2024/01/24 09:50:15;;;;;;;8.80;8.60;;;11.60;99.90;;;;;;6248949;22;20226;-85
2024/01/24 09:52:43;;;;;;;8.67;8.47;;;11.60;99.90;;;;;;6249224;22;20211;-87
2024/01/24 09:55:13;;;;;;;8.57;8.37;;;11.50;99.90;;;;;;6249193;22;20187;-86
2024/01/24 09:57:41;;;;;;;8.40;8.20;;;11.40;99.90;;;;;;6248694;22;20183;-86
2024/01/24 10:00:14;;;;;;;8.30;8.10;;;11.40;99.90;;;;;;6248935;22;20171;-85
2024/01/24 10:02:45;;;;;;;8.10;7.90;;;11.40;99.90;;;;;;6249639;22;20178;-86
2024/01/24 10:05:17;;;;;;;7.80;7.60;;;11.40;99.90;;;;;;6249480;22;20191;-86
2024/01/24 10:07:44;;;;;;;7.97;7.77;;;11.40;99.90;;;;;;6248808;22;20210;-86
2024/01/24 10:10:13;;;;;;;8.73;8.47;;;11.40;99.90;;;;;;6248806;22;20271;-86
2024/01/24 10:12:42;;;;;;;8.87;8.57;;;11.40;99.90;;;;;;6249346;22;20191;-85
2024/01/24 10:15:12;;;;;;;8.80;8.50;;;11.40;99.90;;;;;;6249206;22;20222;-86
2024/01/24 10:17:42;;;;;;;8.60;8.40;;;11.40;99.90;;;;;;6249132;22;20175;-86
2024/01/24 10:20:12;;;;;;;9.20;8.90;;;11.50;99.90;;;;;;6248828;22;20171;-86
2024/01/24 10:22:41;;;;;;;10.13;9.83;;;11.60;99.90;;;;;;6248767;22;20184;-85
2024/01/24 10:25:10;;;;;;;10.30;10.00;;;11.80;99.90;;;;;;6248626;22;20251;-87
2024/01/24 10:27:39;;;;;;;10.17;9.87;;;12.10;99.90;;;;;;6240455;22;20234;-86
2024/01/24 10:30:15;;;;;;;10.47;10.17;;;12.40;99.90;;;;;;6228316;23;20195;-86
2024/01/24 10:32:45;;;;;;;10.27;9.97;;;12.70;99.90;;;;;;6228659;23;20195;-87
2024/01/24 10:35:14;;;;;;;10.20;9.90;;;12.90;99.90;;;;;;6228088;23;20238;-86
2024/01/24 10:37:42;;;;;;;10.57;10.27;;;13.10;99.90;;;;;;6233939;22;20203;-85
2024/01/24 10:40:15;;;;;;;10.60;10.30;;;13.30;99.90;;;;;;6237903;23;20191;-86
2024/01/24 10:42:44;;;;;;;10.40;10.10;;;13.40;99.90;;;;;;6237166;23;20249;-87
2024/01/24 10:45:15;;;;;;;10.03;9.73;;;13.50;99.90;;;;;;6233380;23;20195;-87
2024/01/24 10:47:44;;;;;;;10.10;9.80;;;13.50;99.90;;;;;;6096651;23;20218;-87
2024/01/24 10:50:12;;;;;;;10.63;10.33;;;13.60;99.90;;;;;;6077032;23;20202;-86
2024/01/24 10:52:42;;;;;;;10.70;10.40;;;13.60;99.90;;;;;;6080698;23;20205;-87
2024/01/24 10:55:12;;;;;;;10.43;10.13;;;13.60;99.90;;;;;;6081068;23;20208;-86
2024/01/24 10:57:42;;;;;;;9.90;9.60;;;13.70;99.90;;;;;;6081387;23;20195;-87
2024/01/24 11:00:11;;;;;;;10.00;9.70;;;13.80;99.90;;;;;;6086699;23;20307;-86
2024/01/24 11:02:41;;;;;;;9.90;9.60;;;13.90;99.90;;;;;;6085288;23;20206;-87
2024/01/24 11:05:23;;;;;;;10.40;10.10;;;13.90;99.90;;;;;;6079463;23;20202;-86
2024/01/24 11:07:58;;;;;;;10.10;9.80;;;14.10;99.90;;;;;;6076867;23;20206;-86
2024/01/24 11:10:32;;;;;;;10.30;10.00;;;14.00;99.90;;;;;;6075952;23;20252;-86
2024/01/24 11:13:01;;;;;;;10.20;9.90;;;13.80;99.90;;;;;;6076017;23;20206;-86
2024/01/24 11:15:31;;;;;;;10.27;9.97;;;13.70;99.90;;;;;;6076032;23;20195;-85
2024/01/24 11:18:22;;;;;;;10.10;9.80;;;13.60;99.90;;;;;;6076363;23;20206;-85
2024/01/24 11:20:55;;;;;;;10.10;9.80;;;13.60;99.90;;;;;;6075618;23;20245;-86
2024/01/24 11:23:38;;;;;;;10.30;10.00;;;13.60;99.90;;;;;;6075776;23;20194;-86
2024/01/24 11:26:06;;;;;;;10.30;10.00;;;13.50;99.90;;;;;;6075749;23;20206;-86
2024/01/24 11:28:34;;;;;;;10.30;10.00;;;13.40;99.90;;;;;;6076486;23;20264;-86
2024/01/24 11:31:01;;;;;;;10.40;10.10;;;13.40;99.90;;;;;;6075654;23;20210;-86
2024/01/24 11:33:30;;;;;;;10.60;10.30;;;13.40;99.90;;;;;;6077564;23;20210;-86
2024/01/24 11:35:58;;;;;;;10.40;10.10;;;13.40;99.90;;;;;;6077197;23;20202;-86
2024/01/24 11:38:37;;;;;;;10.53;10.23;;;13.40;99.90;;;;;;6077630;23;20261;-87
2024/01/24 11:41:26;;;;;;;10.60;10.30;;;13.30;99.90;;;;;;6077112;23;20237;-85
2024/01/24 11:43:53;;;;;;;10.43;10.13;;;13.20;99.90;;;;;;6086518;23;20198;-86
2024/01/24 11:46:22;;;;;;;10.60;10.30;;;13.20;99.90;;;;;;6118973;22;20203;-86
2024/01/24 11:48:51;;;;;;;10.50;10.20;;;13.20;99.90;;;;;;6230786;23;20207;-86
2024/01/24 11:51:21;;;;;;;10.13;9.83;;;13.20;99.90;;;;;;6230701;23;20191;-86
2024/01/24 11:53:48;;;;;;;10.10;9.80;;;13.30;99.90;;;;;;6241446;23;20206;-86
2024/01/24 11:56:15;;;;;;;10.13;9.83;;;13.50;99.90;;;;;;6242375;22;20254;-86
2024/01/24 11:58:43;;;;;;;10.20;9.90;;;13.80;99.90;;;;;;6239709;23;20195;-86
2024/01/24 12:01:11;;;;;;;10.07;9.77;;;14.00;99.90;;;;;;6232682;23;20207;-86
2024/01/24 12:03:46;;;;;;;9.90;9.60;;;14.20;99.90;;;;;;6231172;23;20198;-87
2024/01/24 12:06:15;;;;;;;10.30;10.00;;;14.50;99.90;;;;;;6231781;22;20194;-86
2024/01/24 12:08:45;;;;;;;10.30;10.00;;;14.50;99.90;;;;;;6231006;23;20199;-86
2024/01/24 12:11:13;;;;;;;10.20;9.90;;;14.60;99.90;;;;;;6230825;23;20203;-86
2024/01/24 12:13:40;;;;;;;10.07;9.77;;;14.60;99.90;;;;;;6231853;23;20195;-86
2024/01/24 12:16:08;;;;;;;10.00;9.70;;;14.50;99.90;;;;;;6231195;22;20203;-86
2024/01/24 12:18:37;;;;;;;10.57;10.27;;;14.40;99.90;;;;;;6238085;23;20201;-86
2024/01/24 12:21:09;;;;;;;10.33;10.03;;;14.20;99.90;;;;;;6230931;23;20191;-86
2024/01/24 12:23:37;;;;;;;10.47;10.17;;;14.10;99.90;;;;;;6231228;23;20198;-86
2024/01/24 12:26:06;;;;;;;10.30;10.00;;;14.00;99.90;;;;;;6232143;22;20226;-86
2024/01/24 12:28:34;;;;;;;10.33;10.03;;;14.10;99.90;;;;;;6232183;23;20195;-86
2024/01/24 12:31:04;;;;;;;10.37;10.07;;;14.20;99.90;;;;;;6235789;22;20198;-86
2024/01/24 12:33:33;;;;;;;10.27;9.97;;;14.30;99.90;;;;;;6244522;22;20178;-86
2024/01/24 12:36:05;;;;;;;10.17;9.87;;;14.50;99.90;;;;;;6241615;22;20266;-87
2024/01/24 12:38:37;;;;;;;10.00;9.70;;;14.60;99.90;;;;;;6231060;23;20190;-86
2024/01/24 12:41:05;;;;;;;10.20;9.90;;;14.50;99.90;;;;;;6230245;23;20274;-86
2024/01/24 12:43:33;;;;;;;10.00;9.70;;;14.30;99.90;;;;;;6229485;23;20249;-86
2024/01/24 12:46:07;;;;;;;10.40;10.10;;;14.10;99.90;;;;;;6230105;22;20215;-86
2024/01/24 12:48:34;;;;;;;10.30;10.00;;;14.00;99.90;;;;;;6229691;23;20203;-86
2024/01/24 12:51:01;;;;;;;10.17;9.87;;;13.70;99.90;;;;;;6229191;23;20206;-86
2024/01/24 12:53:29;;;;;;;10.17;9.87;;;13.60;99.90;;;;;;6229199;23;20194;-87
2024/01/24 12:55:58;;;;;;;10.40;10.10;;;13.50;99.90;;;;;;6228533;22;20202;-86
2024/01/24 12:58:25;;;;;;;10.07;9.77;;;13.40;99.90;;;;;;6230206;23;20217;-86
2024/01/24 13:00:52;;;;;;;10.00;9.70;;;13.30;99.90;;;;;;6230014;23;20207;-86
2024/01/24 13:03:20;;;;;;;10.00;9.70;;;13.20;99.90;;;;;;6231004;23;20218;-87